createdAt,value
2023-04-14T00:01:46.284Z,8.63
2023-04-14T00:07:09.447Z,7.60
2023-04-14T00:12:28.919Z,8.43
2023-04-14T00:28:23.937Z,10.63
2023-04-14T00:33:29.928Z,9.37
2023-04-14T00:38:41.735Z,9.97
2023-04-14T00:43:46.811Z,9.17
2023-04-14T00:49:12.005Z,8.33
2023-04-14T00:54:27.843Z,9.63
2023-04-14T00:59:35.746Z,8.83
2023-04-14T01:04:54.150Z,8.10
2023-04-14T01:10:16.070Z,7.80
2023-04-14T01:15:28.199Z,7.53
2023-04-14T01:20:48.615Z,8.40
2023-04-14T01:32:00.718Z,8.97
2023-04-14T01:37:22.681Z,9.70
2023-04-14T01:43:03.895Z,9.73
2023-04-14T01:48:15.733Z,9.20
2023-04-14T01:58:56.149Z,8.00
2023-04-14T02:04:38.774Z,9.13
2023-04-14T02:15:26.094Z,9.37
2023-04-14T02:20:37.792Z,10.00
2023-04-14T02:25:53.746Z,7.93
2023-04-14T02:31:22.075Z,9.63
2023-04-14T02:36:48.762Z,8.23
2023-04-14T02:42:10.676Z,8.90
2023-04-14T02:47:28.951Z,10.10
2023-04-14T02:52:53.804Z,9.53
2023-04-14T02:58:17.522Z,11.83
2023-04-14T03:03:30.359Z,9.67
2023-04-14T03:08:42.363Z,9.93
2023-04-14T03:13:57.412Z,9.43
2023-04-14T03:24:39.223Z,10.50
2023-04-14T03:29:51.289Z,8.30
2023-04-14T03:35:04.235Z,8.03
2023-04-14T03:40:28.463Z,9.30
2023-04-14T03:45:38.088Z,9.30
2023-04-14T03:50:55.447Z,9.33
2023-04-14T03:56:17.340Z,10.03
2023-04-14T04:06:56.130Z,8.30
2023-04-14T04:12:08.688Z,9.27
2023-04-14T04:17:19.134Z,9.53
2023-04-14T04:22:27.334Z,9.83
2023-04-14T04:27:32.728Z,9.07
2023-04-14T04:32:41.058Z,8.50
2023-04-14T04:37:47.085Z,8.60
2023-04-14T04:42:52.937Z,8.43
2023-04-14T04:47:58.173Z,6.93
2023-04-14T04:53:03.412Z,7.80
2023-04-14T04:58:09.176Z,7.47
2023-04-14T05:03:15.145Z,8.13
2023-04-14T05:08:21.793Z,7.67
2023-04-14T05:13:29.296Z,7.93
2023-04-14T05:18:39.457Z,7.13
2023-04-14T05:23:49.201Z,7.53
2023-04-14T05:28:56.528Z,6.87
2023-04-14T05:34:04.539Z,7.33
2023-04-14T05:39:11.844Z,6.70
2023-04-14T05:44:18.514Z,6.10
2023-04-14T05:49:26.242Z,6.37
2023-04-14T05:54:35.567Z,5.60
2023-04-14T05:59:41.192Z,6.67
2023-04-14T06:04:49.210Z,5.30
2023-04-14T06:09:55.840Z,6.93
2023-04-14T06:15:01.969Z,6.03
2023-04-14T06:20:08.110Z,5.97
2023-04-14T06:25:17.074Z,5.70
2023-04-14T06:30:26.969Z,6.33
2023-04-14T06:35:40.434Z,5.30
2023-04-14T06:40:45.662Z,7.17
2023-04-14T06:45:51.327Z,6.87
2023-04-14T06:50:57.549Z,6.23
2023-04-14T06:56:02.925Z,5.97
2023-04-14T07:01:08.356Z,5.67
2023-04-14T07:06:18.046Z,7.03
2023-04-14T07:11:41.520Z,8.57
2023-04-14T07:16:47.382Z,5.73
2023-04-14T07:21:52.736Z,5.80
2023-04-14T07:26:58.212Z,5.53
2023-04-14T07:32:03.586Z,10.03
2023-04-14T07:37:08.846Z,6.60
2023-04-14T07:42:14.586Z,5.63
2023-04-14T07:47:19.891Z,5.93
2023-04-14T07:52:25.708Z,6.63
2023-04-14T07:57:35.732Z,5.30
2023-04-14T08:02:41.334Z,4.37
2023-04-14T08:07:48.843Z,5.93
2023-04-14T08:12:55.464Z,6.00
2023-04-14T08:18:01.220Z,5.03
2023-04-14T08:23:12.433Z,4.80
2023-04-14T08:28:17.729Z,5.13
2023-04-14T08:33:23.142Z,4.63
2023-04-14T08:38:29.411Z,4.73
2023-04-14T08:43:35.228Z,6.33
2023-04-14T08:48:41.912Z,4.40
2023-04-14T08:53:49.634Z,4.07
2023-04-14T08:58:55.142Z,4.40
2023-04-14T09:04:04.318Z,4.43
2023-04-14T09:09:11.400Z,3.43
2023-04-14T09:14:18.642Z,3.87
2023-04-14T09:19:28.650Z,3.27
2023-04-14T09:24:34.766Z,3.77
2023-04-14T09:29:42.745Z,3.97
2023-04-14T09:34:57.794Z,4.17
2023-04-14T09:40:06.480Z,4.53
2023-04-14T09:45:14.550Z,5.13
2023-04-14T09:50:24.352Z,4.10
2023-04-14T09:55:32.252Z,3.90
2023-04-14T10:00:40.361Z,4.47
2023-04-14T10:05:51.620Z,3.87
2023-04-14T10:11:13.171Z,4.63
2023-04-14T10:16:19.043Z,3.27
2023-04-14T10:21:28.210Z,3.73
2023-04-14T10:26:36.669Z,3.63
2023-04-14T10:31:45.057Z,3.93
2023-04-14T10:36:50.529Z,3.07
2023-04-14T10:41:57.352Z,3.43
2023-04-14T10:47:06.499Z,3.10
2023-04-14T10:52:22.630Z,3.90
2023-04-14T10:57:33.647Z,3.70
2023-04-14T11:02:43.484Z,3.70
2023-04-14T11:07:55.125Z,2.93
2023-04-14T11:13:19.887Z,3.43
2023-04-14T11:18:47.520Z,2.67
2023-04-14T11:23:53.408Z,2.20
2023-04-14T11:29:00.734Z,1.20
2023-04-14T11:34:29.928Z,2.67
2023-04-14T11:39:36.997Z,2.77
2023-04-14T11:44:42.428Z,3.77
2023-04-14T11:49:53.803Z,4.17
2023-04-14T11:55:08.688Z,2.87
2023-04-14T12:00:21.799Z,3.30
2023-04-14T12:05:31.668Z,2.50
2023-04-14T12:10:49.684Z,3.23
2023-04-14T12:16:04.214Z,3.33
2023-04-14T12:21:12.397Z,3.13
2023-04-14T12:26:18.488Z,3.10
2023-04-14T12:31:31.533Z,2.17
2023-04-14T12:36:49.620Z,3.33
2023-04-14T12:41:58.872Z,3.43
2023-04-14T12:47:05.396Z,3.03
2023-04-14T12:52:16.373Z,3.60
2023-04-14T12:57:28.288Z,4.03
2023-04-14T13:02:36.795Z,4.13
2023-04-14T13:07:42.880Z,3.43
2023-04-14T13:12:50.155Z,3.13
2023-04-14T13:17:58.233Z,3.20
2023-04-14T13:23:11.736Z,4.00
2023-04-14T13:28:21.964Z,3.73
2023-04-14T13:33:51.939Z,2.20
2023-04-14T13:39:01.287Z,3.83
2023-04-14T13:44:08.255Z,2.23
2023-04-14T13:49:19.514Z,3.33
2023-04-14T13:54:37.957Z,3.60
2023-04-14T13:59:47.734Z,3.37
2023-04-14T14:04:54.725Z,3.17
2023-04-14T14:10:03.394Z,2.80
2023-04-14T14:15:14.219Z,2.77
2023-04-14T14:20:20.015Z,1.80
2023-04-14T14:25:27.316Z,3.00
2023-04-14T14:30:32.752Z,1.83
2023-04-14T14:35:37.930Z,2.37
2023-04-14T14:40:43.144Z,2.50
2023-04-14T14:45:48.421Z,2.40
2023-04-14T14:50:53.834Z,2.07
2023-04-14T14:56:00.432Z,2.50
2023-04-14T15:01:07.463Z,1.93
2023-04-14T15:06:14.478Z,1.37
2023-04-14T15:11:22.593Z,2.27
2023-04-14T15:16:27.950Z,1.80
2023-04-14T15:21:33.290Z,1.87
2023-04-14T15:26:48.404Z,1.93
2023-04-14T15:37:48.935Z,2.10
2023-04-14T15:43:21.411Z,1.83
2023-04-14T15:48:40.045Z,1.67
2023-04-14T15:53:56.605Z,1.93
2023-04-14T15:59:22.660Z,3.17
2023-04-14T16:04:28.240Z,3.03
2023-04-14T16:09:33.684Z,2.20
2023-04-14T16:14:40.438Z,2.23
2023-04-14T16:19:45.504Z,1.93
2023-04-14T16:24:51.120Z,2.00
2023-04-14T16:29:56.823Z,6.10
2023-04-14T16:35:04.082Z,3.80
2023-04-14T16:40:10.109Z,1.93
2023-04-14T16:45:15.496Z,1.80
2023-04-14T16:50:20.876Z,1.87
2023-04-14T16:55:29.028Z,1.73
2023-04-14T17:00:34.687Z,0.97
2023-04-14T17:05:40.914Z,1.87
2023-04-14T17:10:46.116Z,2.43
2023-04-14T17:16:02.337Z,2.50
2023-04-14T17:20:59.645Z,2.13
2023-04-14T17:26:06.023Z,2.80
2023-04-14T17:31:15.061Z,3.77
2023-04-14T17:36:20.456Z,3.60
2023-04-14T17:41:25.861Z,5.17
2023-04-14T17:46:36.661Z,5.93
2023-04-14T17:51:43.277Z,5.00
2023-04-14T17:56:50.088Z,4.60
2023-04-14T18:01:57.368Z,4.73
2023-04-14T18:07:03.063Z,5.57
2023-04-14T18:12:08.196Z,3.47
2023-04-14T18:17:13.635Z,4.57
2023-04-14T18:22:19.262Z,4.53
2023-04-14T18:32:32.568Z,4.40
2023-04-14T18:37:39.050Z,3.27
2023-04-14T18:42:45.016Z,5.07
2023-04-14T18:47:51.045Z,4.00
2023-04-14T18:52:57.297Z,4.47
2023-04-14T18:58:03.724Z,4.50
2023-04-14T19:03:09.856Z,3.73
2023-04-14T19:08:20.468Z,3.33
2023-04-14T19:13:28.214Z,4.80
2023-04-14T19:18:38.116Z,4.37
2023-04-14T19:24:01.798Z,3.43
2023-04-14T19:29:09.295Z,3.17
2023-04-14T19:34:15.835Z,2.53
2023-04-14T19:39:25.088Z,3.30
2023-04-14T19:44:31.402Z,3.20
2023-04-14T19:49:42.310Z,2.93
2023-04-14T19:54:52.509Z,3.20
2023-04-14T19:59:57.537Z,3.27
2023-04-14T20:05:03.647Z,3.20
2023-04-14T20:10:11.483Z,2.77
2023-04-14T20:15:17.321Z,2.50
2023-04-14T20:20:28.575Z,2.97
2023-04-14T20:25:36.132Z,3.50
2023-04-14T20:30:43.516Z,2.70
2023-04-14T20:35:51.877Z,3.27
2023-04-14T20:40:57.170Z,3.40
2023-04-14T20:46:04.454Z,2.70
2023-04-14T20:51:09.690Z,3.43
2023-04-14T20:56:14.846Z,3.13
2023-04-14T21:01:20.671Z,2.93
2023-04-14T21:06:26.086Z,4.43
2023-04-14T21:11:31.987Z,4.20
2023-04-14T21:16:37.306Z,3.83
2023-04-14T21:21:43.070Z,3.30
2023-04-14T21:26:48.298Z,4.07
2023-04-14T21:31:54.077Z,4.47
2023-04-14T21:36:59.455Z,4.70
2023-04-14T21:42:04.813Z,4.40
2023-04-14T21:47:11.057Z,3.80
2023-04-14T21:52:16.430Z,4.90
2023-04-14T21:57:47.474Z,5.23
2023-04-14T22:02:31.319Z,4.97
2023-04-14T22:07:37.725Z,4.73
2023-04-14T22:12:44.336Z,4.87
2023-04-14T22:17:50.929Z,4.60
2023-04-14T22:22:57.902Z,5.00
2023-04-14T22:28:03.073Z,4.67
2023-04-14T22:33:10.089Z,4.10
2023-04-14T22:38:15.354Z,5.10
2023-04-14T22:43:20.681Z,4.60
2023-04-14T22:48:26.164Z,4.83
2023-04-14T22:53:31.769Z,4.57
2023-04-14T22:58:38.682Z,4.47
2023-04-14T23:03:44.159Z,5.50
2023-04-14T23:08:50.449Z,4.87
2023-04-14T23:13:55.772Z,5.80
2023-04-14T23:19:01.868Z,5.47
2023-04-14T23:24:08.281Z,5.13
2023-04-14T23:29:13.882Z,5.07
2023-04-14T23:34:20.455Z,5.10
2023-04-14T23:39:25.617Z,4.80
2023-04-14T23:44:30.901Z,5.00
2023-04-14T23:49:36.206Z,5.07
2023-04-14T23:54:42.030Z,4.77
2023-04-14T23:59:47.344Z,4.83
